Time;durP1;ratioP1;P1;durP2;ratioP2;P2;SDS_P1;SDS_P2;PMS_P1;PMS_P2;Temp;Humidity;BMP_temperature;BMP_pressure;BME280_temperature;BME280_humidity;BME280_pressure;Samples;Min_cycle;Max_cycle;Signal;HPM_P1;HPM_P2
2023/05/15 00:01:36;;;;;;;4.77;4.37;;;;;;;9.91;95.24;95208.91;6250754;22;20172;-87
2023/05/15 00:04:07;;;;;;;8.50;4.57;;;;;;;9.87;95.39;95212.75;6274076;22;20149;-87
2023/05/15 00:06:41;;;;;;;5.13;4.30;;;;;;;9.87;96.49;95204.97;6248737;22;20153;-87
2023/05/15 00:09:36;;;;;;;5.40;4.73;;;;;;;9.91;95.97;95195.94;6269997;22;20156;-88
2023/05/15 00:12:17;;;;;;;4.53;4.13;;;;;;;9.93;95.03;95194.00;6273859;22;20572;-88
2023/05/15 00:14:53;;;;;;;4.57;4.17;;;;;;;10.03;94.75;95196.50;6271728;22;20235;-87
2023/05/15 00:17:27;;;;;;;4.50;4.07;;;;;;;10.10;93.77;95196.69;6273632;22;20205;-87
2023/05/15 00:20:06;;;;;;;4.50;4.10;;;;;;;10.15;93.56;95194.44;6273048;22;20187;-87
2023/05/15 00:22:45;;;;;;;4.37;3.97;;;;;;;10.13;94.03;95202.38;6247987;22;20243;-86
2023/05/15 00:25:10;;;;;;;5.40;4.20;;;;;;;10.13;94.33;95198.97;6249646;22;20144;-87
2023/05/15 00:27:41;;;;;;;4.47;4.07;;;;;;;10.11;94.63;95193.94;6271945;22;20230;-87
2023/05/15 00:30:16;;;;;;;4.47;4.07;;;;;;;10.07;94.77;95194.41;6248264;22;20177;-87
2023/05/15 00:32:52;;;;;;;5.13;4.47;;;;;;;10.03;94.91;95196.50;6273436;22;20172;-88
2023/05/15 00:35:30;;;;;;;4.80;4.40;;;;;;;10.02;95.40;95186.28;6273193;22;20187;-87
2023/05/15 00:41:24;;;;;;;5.03;4.50;;;;;;;9.98;94.18;95187.53;6241000;23;20318;-88
2023/05/15 00:43:53;;;;;;;4.73;4.33;;;;;;;9.89;94.52;95179.72;6240066;23;20184;-87
2023/05/15 00:46:37;;;;;;;4.80;4.27;;;;;;;9.91;94.38;95184.75;6215797;23;20164;-88
2023/05/15 00:49:15;;;;;;;4.50;4.10;;;;;;;9.94;94.32;95184.44;6217483;23;20191;-87
2023/05/15 00:51:41;;;;;;;8.03;5.50;;;;;;;9.90;94.06;95186.53;6214936;23;20208;-87
2023/05/15 00:54:16;;;;;;;4.53;4.13;;;;;;;9.90;93.19;95188.31;6215266;23;20157;-87
2023/05/15 00:56:48;;;;;;;4.10;3.70;;;;;;;9.89;93.76;95189.25;6215599;23;20164;-87
2023/05/15 00:59:14;;;;;;;4.97;4.20;;;;;;;9.75;94.85;95188.03;6216012;23;20587;-87
2023/05/15 01:01:40;;;;;;;4.23;3.83;;;;;;;9.71;95.31;95188.47;6215288;23;20173;-86
2023/05/15 01:04:06;;;;;;;5.30;3.80;;;;;;;9.73;95.44;95189.97;6215784;22;20245;-87
2023/05/15 01:06:40;;;;;;;5.90;4.30;;;;;;;9.72;96.14;95190.09;6246730;22;20160;-87
2023/05/15 01:09:14;;;;;;;5.17;4.67;;;;;;;9.68;96.29;95194.78;6273702;22;20153;-87
2023/05/15 01:11:46;;;;;;;4.93;4.53;;;;;;;9.71;96.32;95191.06;6273787;22;20184;-87
2023/05/15 01:14:39;;;;;;;4.87;4.37;;;;;;;9.75;95.96;95200.19;6249680;22;20156;-87
2023/05/15 01:20:05;;;;;;;4.70;4.30;;;;;;;9.78;95.33;95200.69;6275560;22;20602;-88
2023/05/15 01:22:43;;;;;;;4.87;4.33;;;;;;;9.80;94.85;95201.34;6276597;22;20152;-87
2023/05/15 01:25:17;;;;;;;5.27;4.77;;;;;;;9.88;94.35;95200.59;6274706;22;20244;-87
2023/05/15 01:28:01;;;;;;;4.87;4.43;;;;;;;9.96;93.96;95202.44;6274378;22;20590;-86
2023/05/15 01:30:32;;;;;;;4.87;4.47;;;;;;;10.01;94.10;95200.22;6275422;22;20173;-87
2023/05/15 01:33:37;;;;;;;4.77;4.37;;;;;;;10.08;93.65;95189.06;6274982;22;20156;-88
2023/05/15 01:36:36;;;;;;;5.17;4.77;;;;;;;10.13;93.62;95196.38;6156541;23;20162;-87
2023/05/15 01:39:33;;;;;;;4.90;4.50;;;;;;;10.17;93.10;95195.13;6157130;23;20166;-88
2023/05/15 01:42:32;;;;;;;5.10;4.60;;;;;;;10.25;93.01;95200.41;6155370;23;20198;-87
2023/05/15 01:45:02;;;;;;;4.93;4.43;;;;;;;10.26;93.14;95202.03;6093120;23;20160;-86
2023/05/15 01:47:43;;;;;;;5.73;5.03;;;;;;;10.28;93.08;95202.69;6067728;23;20156;-88
2023/05/15 01:50:13;;;;;;;5.67;5.17;;;;;;;10.30;93.00;95205.94;6093344;23;20184;-87
2023/05/15 01:52:51;;;;;;;6.17;5.10;;;;;;;10.31;92.92;95199.75;6072781;23;20198;-87
2023/05/15 01:55:20;;;;;;;6.17;5.57;;;;;;;10.28;93.15;95192.28;6069505;23;20191;-87
2023/05/15 01:57:47;;;;;;;6.87;4.90;;;;;;;10.32;92.94;95196.19;6092773;23;20226;-88
2023/05/15 02:00:18;;;;;;;5.60;5.10;;;;;;;10.34;92.92;95203.84;6069644;23;20263;-87
2023/05/15 02:02:47;;;;;;;5.00;4.53;;;;;;;10.31;93.11;95196.34;6127616;23;20167;-87
2023/05/15 02:05:22;;;;;;;6.30;5.70;;;;;;;10.30;93.49;95197.31;6152978;23;20163;-86
2023/05/15 02:08:11;;;;;;;6.77;5.77;;;;;;;10.29;93.59;95200.91;6151577;23;20541;-87
2023/05/15 02:10:44;;;;;;;5.23;4.73;;;;;;;10.30;93.21;95194.72;6127174;23;20241;-88
2023/05/15 02:13:32;;;;;;;5.77;5.27;;;;;;;10.29;93.37;95196.50;6152399;23;20617;-88
2023/05/15 02:16:09;;;;;;;6.23;5.57;;;;;;;10.26;93.60;95194.25;6151530;23;20163;-88
2023/05/15 02:19:01;;;;;;;;;;;;;;;;;;;;;
2023/05/15 02:21:58;;;;;;;7.33;6.33;;;;;;;10.20;94.32;95187.03;6207956;22;20256;-87
2023/05/15 02:24:38;;;;;;;7.20;6.50;;;;;;;10.21;94.06;95189.47;6274564;22;20164;-88
2023/05/15 02:27:21;;;;;;;7.23;6.53;;;;;;;10.24;94.25;95182.34;6249804;22;21078;-87
2023/05/15 02:30:29;;;;;;;7.60;6.90;;;;;;;10.23;94.77;95189.34;6272557;22;20207;-87
2023/05/15 02:33:34;;;;;;;7.93;7.10;;;;;;;10.27;94.62;95190.66;6274069;22;20160;-88
2023/05/15 02:36:21;;;;;;;7.57;6.87;;;;;;;10.26;94.95;95178.66;6273839;22;20160;-87
2023/05/15 02:39:10;;;;;;;7.77;7.07;;;;;;;10.27;95.35;95184.66;6244904;22;20163;-87
2023/05/15 02:41:42;;;;;;;8.10;7.30;;;;;;;10.24;95.87;95184.97;6277566;22;20177;-87
2023/05/15 02:44:22;;;;;;;7.90;7.20;;;;;;;10.31;95.46;95184.19;6273106;22;20192;-88
2023/05/15 02:47:16;;;;;;;7.37;6.67;;;;;;;10.33;95.42;95178.84;6245891;22;20162;-87
2023/05/15 02:49:57;;;;;;;8.40;7.60;;;;;;;10.38;95.24;95187.00;6277377;22;20164;-86
2023/05/15 02:52:28;;;;;;;8.33;7.53;;;;;;;10.36;95.32;95174.16;6274909;22;20169;-87
2023/05/15 02:55:02;;;;;;;7.20;6.50;;;;;;;10.44;95.35;95184.59;6274601;22;20172;-87
2023/05/15 02:57:32;;;;;;;8.10;7.30;;;;;;;10.45;95.28;95180.22;6273566;22;20156;-86
2023/05/15 02:59:58;;;;;;;8.07;7.37;;;;;;;10.49;95.02;95184.09;6274497;22;20172;-87
2023/05/15 03:02:28;;;;;;;7.63;6.77;;;;;;;10.47;95.31;95186.06;6274016;22;20171;-87
2023/05/15 03:05:02;;;;;;;11.43;7.53;;;;;;;10.49;95.67;95179.72;6275329;22;20188;-87
2023/05/15 03:07:46;;;;;;;7.03;6.43;;;;;;;10.57;95.02;95186.75;6273740;22;20161;-87
2023/05/15 03:10:23;;;;;;;7.90;7.10;;;;;;;10.56;95.25;95177.34;6274490;22;20506;-86
2023/05/15 03:13:01;;;;;;;7.87;7.17;;;;;;;10.62;94.83;95183.69;6273931;22;20181;-88
2023/05/15 03:15:27;;;;;;;7.93;6.60;;;;;;;10.63;94.65;95177.53;6250725;22;20152;-88
2023/05/15 03:18:17;;;;;;;7.57;6.57;;;;;;;10.58;95.00;95170.19;6272622;22;20167;-87
2023/05/15 03:20:48;;;;;;;8.20;7.40;;;;;;;10.62;94.67;95170.72;6249490;22;20256;-87
2023/05/15 03:23:21;;;;;;;8.73;7.47;;;;;;;10.67;94.39;95173.63;6274410;22;20626;-87
2023/05/15 03:26:07;;;;;;;8.67;7.17;;;;;;;10.66;94.47;95172.81;6273466;22;20790;-87
2023/05/15 03:28:33;;;;;;;8.27;7.47;;;;;;;10.68;94.28;95177.84;6274261;22;20152;-88
2023/05/15 03:31:04;;;;;;;8.73;7.83;;;;;;;10.68;94.13;95173.47;6248092;22;20261;-87
2023/05/15 03:33:32;;;;;;;7.73;6.93;;;;;;;10.69;94.40;95179.47;6265659;22;20169;-87
2023/05/15 03:36:12;;;;;;;8.73;7.60;;;;;;;10.70;94.31;95183.72;6271698;22;20164;-87
2023/05/15 03:39:01;;;;;;;7.63;6.80;;;;;;;10.71;93.81;95172.38;6274287;22;20172;-87
2023/05/15 03:41:32;;;;;;;8.07;7.27;;;;;;;10.68;94.09;95177.84;6249031;22;20181;-87
2023/05/15 03:43:57;;;;;;;8.03;7.23;;;;;;;10.69;94.10;95182.06;6273414;22;20180;-87
2023/05/15 03:46:28;;;;;;;9.13;6.93;;;;;;;10.70;93.83;95189.72;6247153;22;20167;-87
2023/05/15 03:49:11;;;;;;;7.37;6.60;;;;;;;10.73;94.10;95179.00;6274035;22;20156;-88
2023/05/15 03:52:09;;;;;;;8.20;7.40;;;;;;;10.76;93.92;95183.88;6273733;22;20184;-88
2023/05/15 03:55:04;;;;;;;8.07;7.27;;;;;;;10.69;94.33;95176.88;6250539;22;20165;-86
2023/05/15 03:57:45;;;;;;;7.40;6.63;;;;;;;10.73;94.36;95176.41;6272847;22;20167;-87
2023/05/15 04:00:14;;;;;;;8.10;7.30;;;;;;;10.68;94.18;95183.03;6248580;22;20180;-87
2023/05/15 04:02:40;;;;;;;7.77;6.60;;;;;;;10.76;93.94;95183.06;6273325;22;20153;-87
2023/05/15 04:05:29;;;;;;;8.03;6.67;;;;;;;10.75;93.75;95184.03;6248346;22;20240;-87
2023/05/15 04:08:06;;;;;;;7.90;7.10;;;;;;;10.80;93.62;95184.41;6298462;22;20218;-87
2023/05/15 04:10:44;;;;;;;11.20;10.10;;;;;;;10.80;93.50;95179.22;6274297;22;20210;-88
2023/05/15 04:13:33;;;;;;;;;;;;;;;;;;;;;
2023/05/15 04:16:03;;;;;;;9.77;8.77;;;;;;;10.82;94.22;95187.66;6272930;22;20220;-87
2023/05/15 04:18:55;;;;;;;9.33;7.83;;;;;;;10.81;94.06;95185.22;6273714;22;20484;-87
2023/05/15 04:22:02;;;;;;;9.40;8.07;;;;;;;10.82;94.12;95182.47;6270925;22;20173;-87
2023/05/15 04:25:01;;;;;;;8.00;7.20;;;;;;;10.85;94.19;95194.31;6273629;22;20156;-88
2023/05/15 04:27:26;;;;;;;10.20;8.40;;;;;;;10.85;94.07;95187.31;6274096;22;20149;-87
2023/05/15 04:29:52;;;;;;;9.17;8.27;;;;;;;10.84;93.53;95190.91;6272856;22;20226;-87
2023/05/15 04:32:20;;;;;;;11.27;9.63;;;;;;;10.84;93.52;95193.50;6273294;22;20263;-87
2023/05/15 04:34:46;;;;;;;14.43;12.70;;;;;;;10.86;93.23;95191.53;6273339;22;20156;-86
2023/05/15 04:37:11;;;;;;;12.50;11.00;;;;;;;10.94;92.44;95191.56;6246922;22;20488;-88
2023/05/15 08:19:06;;;;;;;5.57;2.97;;;;;;;20.48;47.61;95225.09;6215595;23;20220;-82
2023/05/15 08:21:40;;;;;;;3.38;3.08;;;;;;;20.37;47.34;95237.13;6190940;23;20578;-83
2023/05/15 08:24:14;;;;;;;3.17;2.55;;;;;;;20.14;46.42;95231.63;6165903;23;20148;-82
2023/05/15 08:26:39;;;;;;;3.10;2.90;;;;;;;19.63;48.56;95219.41;6192538;23;20143;-82
2023/05/15 08:29:10;;;;;;;4.45;2.75;;;;;;;19.61;51.20;95227.50;6167833;23;20158;-83
2023/05/15 08:32:02;;;;;;;3.13;2.90;;;;;;;19.73;48.89;95225.03;6192909;23;20493;-83
2023/05/15 08:34:28;;;;;;;3.30;3.00;;;;;;;19.65;48.43;95233.19;6166531;23;20511;-82
2023/05/15 08:36:54;;;;;;;3.13;2.83;;;;;;;19.76;50.05;95230.66;6166257;23;20240;-82
2023/05/15 08:39:22;;;;;;;3.10;2.78;;;;;;;19.85;48.56;95225.94;6191524;23;20139;-82
2023/05/15 08:42:02;;;;;;;2.83;2.60;;;;;;;19.81;48.94;95235.31;6167490;23;20193;-83
2023/05/15 08:44:38;;;;;;;3.67;3.10;;;;;;;19.59;49.83;95228.75;6192096;23;20158;-83
2023/05/15 08:47:04;;;;;;;3.72;3.42;;;;;;;19.16;49.15;95231.94;6215672;23;20137;-82
2023/05/15 08:49:51;;;;;;;4.30;3.20;;;;;;;18.95;48.16;95225.13;6163648;23;20172;-82
2023/05/15 08:52:16;;;;;;;5.35;3.30;;;;;;;18.70;48.33;95226.81;6215909;23;20224;-83
2023/05/15 08:54:42;;;;;;;3.75;2.83;;;;;;;18.77;49.15;95217.91;6187801;23;20225;-82
2023/05/15 08:57:09;;;;;;;4.28;2.88;;;;;;;19.02;49.63;95227.75;6208952;23;20161;-82
2023/05/15 08:59:49;;;;;;;;;;;;;;;;;;;;;
2023/05/15 09:02:16;;;;;;;2.95;2.65;;;;;;;19.69;47.62;95218.53;6188977;23;20253;-81
2023/05/15 09:04:43;;;;;;;4.20;3.53;;;;;;;19.00;48.66;95221.91;6185967;23;20186;-82
2023/05/15 09:07:10;;;;;;;3.75;2.90;;;;;;;19.37;47.41;95222.97;6214532;23;20153;-82
2023/05/15 09:09:47;;;;;;;2.85;2.63;;;;;;;19.69;47.53;95218.53;6190177;23;20173;-83
2023/05/15 09:12:27;;;;;;;5.07;3.20;;;;;;;19.12;45.38;95218.41;6191592;23;20166;-83
2023/05/15 09:15:47;;;;;;;4.28;3.17;;;;;;;19.36;45.19;95219.53;6188988;23;20192;-82
2023/05/15 09:18:34;;;;;;;3.10;2.80;;;;;;;19.80;46.39;95218.69;6120802;23;20215;-81
2023/05/15 09:21:23;;;;;;;3.28;2.95;;;;;;;19.58;45.69;95219.22;6096609;23;20192;-82
2023/05/15 09:23:56;;;;;;;3.38;3.08;;;;;;;18.92;45.33;95221.09;6073323;23;20156;-83
2023/05/15 09:26:26;;;;;;;3.30;3.00;;;;;;;18.33;47.46;95211.47;6092637;23;20178;-81
2023/05/15 09:29:01;;;;;;;3.22;3.03;;;;;;;17.69;48.85;95219.91;6118398;23;20152;-83
2023/05/15 09:31:26;;;;;;;3.45;3.15;;;;;;;18.16;49.12;95218.13;6072074;23;20194;-83
2023/05/15 09:33:59;;;;;;;3.00;2.80;;;;;;;18.49;49.28;95212.06;6124338;23;20191;-84
2023/05/15 09:36:25;;;;;;;4.13;3.20;;;;;;;19.43;47.31;95208.94;6075886;23;20252;-84
2023/05/15 09:38:57;;;;;;;3.25;2.92;;;;;;;19.41;46.80;95214.41;6102375;23;20195;-84
2023/05/15 09:41:26;;;;;;;3.65;3.33;;;;;;;19.50;44.56;95215.78;6101185;23;20179;-85
2023/05/15 09:43:55;;;;;;;3.63;3.10;;;;;;;18.80;47.44;95209.59;6126359;23;20163;-84
2023/05/15 09:46:21;;;;;;;5.13;3.47;;;;;;;19.15;45.71;95214.53;6126558;23;20654;-84
2023/05/15 09:48:46;;;;;;;3.72;2.80;;;;;;;19.20;45.45;95206.84;6078424;23;20334;-85
2023/05/15 09:51:16;;;;;;;2.83;2.63;;;;;;;19.59;45.44;95205.84;6103117;23;20733;-85
2023/05/15 09:53:48;;;;;;;3.58;3.03;;;;;;;19.81;44.52;95198.44;6102905;23;20279;-85
2023/05/15 09:56:15;;;;;;;5.53;2.85;;;;;;;19.47;47.11;95197.78;6165523;23;20142;-84
2023/05/15 09:58:54;;;;;;;3.38;2.88;;;;;;;19.97;46.45;95192.63;6163892;23;20150;-84
2023/05/15 10:01:21;;;;;;;4.35;3.92;;;;;;;19.51;45.61;95198.16;6165228;23;20177;-85
2023/05/15 10:04:00;;;;;;;3.90;3.60;;;;;;;19.05;46.61;95187.84;6164818;23;20158;-85
2023/05/15 10:06:25;;;;;;;3.70;3.40;;;;;;;19.07;46.96;95191.06;6162005;23;20757;-84
2023/05/15 10:08:54;;;;;;;4.70;4.30;;;;;;;18.79;47.40;95186.94;6163996;23;20196;-85
2023/05/15 10:11:21;;;;;;;5.32;3.67;;;;;;;19.08;47.90;95183.00;6164378;23;20182;-84
2023/05/15 10:14:11;;;;;;;;;;;;;;;;;;;;;
2023/05/15 10:16:42;;;;;;;5.07;3.55;;;;;;;19.36;47.39;95176.59;6193607;23;20535;-84
2023/05/15 10:19:16;;;;;;;4.00;3.60;;;;;;;19.21;46.32;95187.38;6163751;23;20168;-85
2023/05/15 10:21:41;;;;;;;3.85;3.25;;;;;;;19.27;44.78;95181.28;6188985;23;20199;-84
2023/05/15 10:24:07;;;;;;;3.35;3.00;;;;;;;19.20;44.35;95177.88;6164061;23;20193;-84
2023/05/15 10:26:40;;;;;;;3.70;3.40;;;;;;;19.61;44.31;95182.72;6163420;23;20775;-84
2023/05/15 10:29:08;;;;;;;3.58;3.15;;;;;;;19.53;43.95;95172.44;6163666;23;20600;-85
2023/05/15 10:31:34;;;;;;;6.32;3.20;;;;;;;19.75;44.99;95165.81;6187344;23;20200;-85
2023/05/15 10:34:09;;;;;;;3.50;3.05;;;;;;;19.96;44.50;95171.75;6164068;23;20162;-86
2023/05/15 10:36:40;;;;;;;4.03;2.70;;;;;;;19.87;41.89;95168.56;6164006;23;20169;-87
2023/05/15 10:39:14;;;;;;;3.13;2.72;;;;;;;19.53;43.94;95170.63;6165992;23;20142;-85
2023/05/15 10:41:41;;;;;;;4.30;2.60;;;;;;;19.30;43.69;95161.63;6164063;23;20293;-84
2023/05/15 10:44:07;;;;;;;3.50;3.20;;;;;;;19.27;44.18;95156.78;6162753;23;20161;-87
2023/05/15 10:46:33;;;;;;;4.93;2.85;;;;;;;19.00;43.91;95161.38;6187168;23;20158;-88
2023/05/15 10:49:02;;;;;;;3.25;2.92;;;;;;;18.50;47.02;95145.31;6162689;23;20612;-88
2023/05/15 10:51:43;;;;;;;3.40;2.70;;;;;;;19.38;44.16;95151.66;6163841;23;20174;-88
2023/05/15 10:54:12;;;;;;;3.13;2.85;;;;;;;19.29;42.91;95139.75;6188117;23;20150;-87
2023/05/15 10:56:45;;;;;;;3.30;2.67;;;;;;;19.59;44.77;95144.47;6163398;23;20153;-87
2023/05/15 10:59:11;;;;;;;2.55;2.35;;;;;;;19.58;42.09;95145.47;6163721;23;20142;-88
2023/05/15 11:01:37;;;;;;;3.22;2.92;;;;;;;20.45;43.31;95134.03;6163293;23;20170;-84
2023/05/15 11:04:09;;;;;;;3.78;2.65;;;;;;;20.66;41.15;95138.06;6162762;23;20189;-87
2023/05/15 11:06:49;;;;;;;2.80;2.60;;;;;;;21.01;42.55;95135.63;6162342;23;20164;-87
2023/05/15 11:09:23;;;;;;;3.63;2.42;;;;;;;20.88;39.32;95133.16;6165317;23;20158;-88
2023/05/15 11:12:22;;;;;;;2.97;2.78;;;;;;;19.77;40.48;95141.91;6189228;23;20177;-86
2023/05/15 11:14:56;;;;;;;3.53;3.10;;;;;;;19.73;42.33;95146.00;6075729;23;20160;-87
2023/05/15 11:17:25;;;;;;;3.50;2.55;;;;;;;19.93;41.38;95141.38;6121542;23;20168;-84
2023/05/15 11:20:11;;;;;;;2.75;2.55;;;;;;;20.08;40.02;95135.78;6122399;23;20343;-88
2023/05/15 11:22:42;;;;;;;3.58;2.08;;;;;;;19.44;39.86;95137.66;6121851;23;20160;-86
2023/05/15 11:25:18;;;;;;;2.60;2.20;;;;;;;20.13;39.23;95127.22;6098123;23;20541;-87
2023/05/15 11:31:39;;;;;;;2.63;2.42;;;;;;;19.10;41.45;95130.16;6091669;23;20188;-84
2023/05/15 11:34:22;;;;;;;2.67;2.45;;;;;;;18.91;41.86;95135.31;6069468;23;20239;-84
2023/05/15 11:37:01;;;;;;;2.65;2.45;;;;;;;18.83;42.24;95125.00;6069762;23;20194;-85
2023/05/15 11:39:36;;;;;;;2.70;2.50;;;;;;;19.24;40.80;95121.16;6069407;23;20164;-84
2023/05/15 11:42:19;;;;;;;3.85;2.47;;;;;;;19.39;38.95;95116.41;6068251;23;20164;-83
2023/05/15 11:45:16;;;;;;;;;;;;;;;;;;;;;
2023/05/15 11:48:19;;;;;;;2.63;2.38;;;;;;;20.61;39.61;95117.63;6072079;23;20232;-84
2023/05/15 11:50:58;;;;;;;;;;;;;;;;;;;;;
2023/05/15 11:53:57;;;;;;;2.47;2.35;;;;;;;20.75;37.98;95110.34;6083146;23;20301;-85
2023/05/15 11:56:40;;;;;;;;;;;;;;;;;;;;;
2023/05/15 11:59:08;;;;;;;4.30;2.53;;;;;;;19.07;41.16;95109.50;6081285;23;20251;-84
2023/05/15 12:01:52;;;;;;;3.00;2.70;;;;;;;18.44;40.82;95104.06;6132854;23;20224;-84
2023/05/15 12:04:20;;;;;;;2.50;2.30;;;;;;;18.91;42.08;95109.00;6133663;23;20155;-84
2023/05/15 12:07:03;;;;;;;4.50;2.53;;;;;;;18.42;40.43;95112.16;6162241;23;20168;-84
2023/05/15 12:09:31;;;;;;;4.30;2.53;;;;;;;18.49;40.86;95112.16;6163899;23;20192;-84
2023/05/15 12:12:05;;;;;;;4.20;2.95;;;;;;;19.39;40.36;95108.50;6186192;23;20178;-84
2023/05/15 12:14:48;;;;;;;4.90;2.33;;;;;;;19.43;43.85;95114.94;6186890;23;20212;-84
2023/05/15 12:17:45;;;;;;;5.10;3.45;;;;;;;19.58;44.64;95122.59;6163620;23;20157;-84
2023/05/15 12:20:28;;;;;;;;;;;;;;;;;;;;;
2023/05/15 12:23:13;;;;;;;3.35;3.05;;;;;;;18.80;45.22;95124.59;6190314;23;20221;-85
2023/05/15 12:25:52;;;;;;;7.00;2.80;;;;;;;18.77;46.94;95117.94;6162789;23;20172;-85
2023/05/15 12:28:54;;;;;;;8.40;3.47;;;;;;;18.60;46.74;95122.81;6141880;23;20670;-85
2023/05/15 12:31:30;;;;;;;3.15;2.92;;;;;;;19.00;45.96;95116.66;6164199;23;20720;-85
2023/05/15 12:34:40;;;;;;;;;;;;;;;;;;;;;
2023/05/15 12:37:29;;;;;;;3.20;2.42;;;;;;;18.97;46.85;95117.84;6100582;23;20238;-86
2023/05/15 12:40:22;;;;;;;3.45;3.15;;;;;;;19.63;46.23;95119.31;6117508;23;20184;-85
2023/05/15 12:43:02;;;;;;;2.72;2.53;;;;;;;19.63;45.48;95130.66;6119350;23;20171;-85
2023/05/15 12:45:56;;;;;;;3.15;2.50;;;;;;;19.42;44.44;95128.31;6120456;23;20175;-84
2023/05/15 12:48:28;;;;;;;4.80;2.95;;;;;;;19.23;45.24;95130.06;6121571;23;20214;-84
2023/05/15 12:51:06;;;;;;;3.28;3.03;;;;;;;18.90;46.70;95128.41;6097795;23;20183;-85
2023/05/15 12:53:38;;;;;;;4.47;3.45;;;;;;;19.12;46.84;95133.38;6094139;23;20243;-84
2023/05/15 12:56:15;;;;;;;5.38;3.10;;;;;;;19.33;46.42;95129.59;6093329;23;20494;-84
2023/05/15 12:58:42;;;;;;;3.95;2.78;;;;;;;18.95;46.98;95118.06;6065148;23;20223;-84
2023/05/15 13:01:08;;;;;;;2.92;2.72;;;;;;;19.30;46.15;95135.31;6063000;23;20180;-84
2023/05/15 13:03:46;;;;;;;;;;;;;;;;;;;;;
2023/05/15 13:06:29;;;;;;;3.35;3.05;;;;;;;19.46;45.78;95127.72;6067985;23;20276;-84
2023/05/15 13:09:07;;;;;;;3.85;3.03;;;;;;;19.46;45.14;95127.72;6067002;23;20165;-84
2023/05/15 13:11:39;;;;;;;3.38;3.03;;;;;;;19.61;45.88;95123.97;6067497;23;20189;-84
2023/05/15 13:14:16;;;;;;;3.42;3.13;;;;;;;19.72;45.53;95131.22;6111148;23;20163;-84
2023/05/15 13:16:46;;;;;;;4.20;2.88;;;;;;;19.75;44.59;95121.03;6180575;23;20718;-84
2023/05/15 13:19:12;;;;;;;5.03;2.78;;;;;;;20.01;44.76;95113.94;6157344;23;20167;-84
2023/05/15 13:21:44;;;;;;;3.40;2.90;;;;;;;19.98;43.70;95112.56;6131812;23;20250;-84
2023/05/15 13:24:27;;;;;;;3.90;2.80;;;;;;;20.06;44.46;95111.47;6133296;23;20151;-85
2023/05/15 13:26:54;;;;;;;3.70;2.92;;;;;;;20.05;43.04;95110.66;6183432;23;20135;-84
2023/05/15 13:29:23;;;;;;;2.95;2.65;;;;;;;20.18;42.69;95117.63;6133913;23;20224;-84
2023/05/15 13:31:48;;;;;;;2.78;2.58;;;;;;;20.18;42.56;95111.56;6133690;23;20185;-85
2023/05/15 13:34:14;;;;;;;2.78;2.58;;;;;;;20.26;42.95;95111.28;6135252;23;20159;-84
2023/05/15 13:36:40;;;;;;;2.90;2.47;;;;;;;20.03;41.91;95117.16;6134752;23;20166;-84
2023/05/15 13:39:06;;;;;;;2.05;1.95;;;;;;;19.09;42.60;95123.28;6134664;23;20155;-84
2023/05/15 13:41:31;;;;;;;1.90;1.80;;;;;;;19.88;42.16;95112.25;6159343;23;20174;-85
2023/05/15 13:43:57;;;;;;;2.85;2.30;;;;;;;20.26;40.66;95119.19;6158598;23;20165;-84
2023/05/15 13:46:22;;;;;;;2.10;1.98;;;;;;;20.26;40.34;95119.19;6133792;23;20162;-85
2023/05/15 13:48:48;;;;;;;1.88;1.77;;;;;;;19.84;40.82;95111.03;6158426;23;20170;-85
2023/05/15 13:51:16;;;;;;;3.05;2.53;;;;;;;19.79;41.29;95106.44;6132843;23;20178;-84
2023/05/15 13:53:44;;;;;;;3.70;2.78;;;;;;;19.52;42.21;95111.06;6133589;23;20176;-85
2023/05/15 13:56:11;;;;;;;3.05;2.75;;;;;;;19.86;42.13;95093.19;6158046;23;20162;-85
2023/05/15 13:58:43;;;;;;;2.90;2.60;;;;;;;19.97;41.61;95092.50;6134883;23;20592;-84
2023/05/15 14:01:14;;;;;;;2.67;2.47;;;;;;;19.92;40.89;95099.44;6134686;23;20174;-84
2023/05/15 14:03:44;;;;;;;3.00;2.80;;;;;;;20.04;39.99;95097.69;6160542;23;20225;-84
2023/05/15 14:06:10;;;;;;;3.55;2.80;;;;;;;19.93;40.57;95096.56;6159430;23;20166;-84
2023/05/15 14:08:37;;;;;;;2.88;2.35;;;;;;;19.78;38.38;95093.44;6159288;23;20640;-84
2023/05/15 14:11:03;;;;;;;4.28;2.40;;;;;;;19.92;39.39;95096.78;6159700;23;20171;-85
2023/05/15 14:13:30;;;;;;;2.58;2.38;;;;;;;19.87;40.02;95097.44;6134520;23;20174;-85
2023/05/15 14:16:06;;;;;;;2.58;2.38;;;;;;;19.46;38.85;95100.56;6133875;23;20162;-85
2023/05/15 14:18:34;;;;;;;3.25;3.00;;;;;;;19.57;38.70;95099.91;6159168;23;20185;-85
2023/05/15 14:21:02;;;;;;;5.72;3.30;;;;;;;19.58;39.72;95105.97;6134669;23;20186;-85
2023/05/15 14:23:33;;;;;;;4.32;3.17;;;;;;;19.78;40.34;95109.25;6131442;23;20162;-85
2023/05/15 14:25:59;;;;;;;3.47;3.17;;;;;;;19.82;40.23;95107.81;6137331;23;20199;-85
2023/05/15 14:28:27;;;;;;;4.15;2.95;;;;;;;19.67;40.18;95104.69;6137410;23;20170;-84
2023/05/15 14:30:55;;;;;;;4.43;3.05;;;;;;;20.65;39.20;95102.16;6134435;23;20170;-85
2023/05/15 14:33:21;;;;;;;3.33;2.65;;;;;;;20.75;39.26;95104.28;6162055;23;20217;-87
2023/05/15 14:52:08;;;;;;;3.97;3.67;;;;;;;21.00;36.81;95120.00;6256350;22;20203;-86
2023/05/15 14:54:36;;;;;;;3.92;3.53;;;;;;;20.74;36.09;95115.84;6250672;22;20153;-86
2023/05/15 14:57:02;;;;;;;4.55;4.05;;;;;;;20.33;36.91;95117.31;6250529;22;20212;-87
2023/05/15 14:59:28;;;;;;;5.82;4.03;;;;;;;20.67;39.10;95109.84;6250561;22;20165;-85
2023/05/15 15:01:53;;;;;;;5.25;3.85;;;;;;;20.31;39.76;95111.41;6279807;22;20199;-79
2023/05/15 15:04:18;;;;;;;4.32;3.15;;;;;;;20.09;39.83;95109.19;6308849;22;20163;-83
2023/05/15 15:06:46;;;;;;;4.10;3.35;;;;;;;20.13;40.81;95114.03;6288478;22;20167;-81
2023/05/15 15:09:13;;;;;;;3.03;2.78;;;;;;;20.33;40.82;95114.66;6329789;22;20152;-80
2023/05/15 15:11:38;;;;;;;3.83;2.92;;;;;;;20.35;41.64;95125.78;6331196;22;20194;-81
2023/05/15 15:14:04;;;;;;;4.53;3.10;;;;;;;19.79;42.54;95118.81;6302053;22;20255;-83
2023/05/15 15:16:29;;;;;;;4.30;2.80;;;;;;;19.90;41.79;95126.00;6320548;22;20512;-82
2023/05/15 15:18:54;;;;;;;2.85;2.63;;;;;;;19.49;42.43;95140.44;6291353;22;20186;-83
2023/05/15 15:21:20;;;;;;;3.15;2.88;;;;;;;19.82;43.04;95143.91;6290472;22;20175;-82
2023/05/15 15:23:47;;;;;;;3.78;3.40;;;;;;;19.77;43.38;95149.81;6288737;22;20152;-83
2023/05/15 15:26:14;;;;;;;4.00;2.97;;;;;;;19.69;43.72;95150.88;6282637;22;20155;-83
2023/05/15 15:28:43;;;;;;;3.00;2.80;;;;;;;19.75;43.98;95143.94;6281758;22;20151;-83
2023/05/15 15:31:11;;;;;;;4.53;2.97;;;;;;;19.74;44.50;95147.59;6307850;22;20174;-83
2023/05/15 15:33:36;;;;;;;3.15;2.85;;;;;;;19.65;44.86;95143.63;6310186;22;20152;-82
2023/05/15 15:36:02;;;;;;;3.00;2.80;;;;;;;19.76;44.61;95151.63;6310833;22;20159;-82
2023/05/15 15:38:27;;;;;;;3.00;2.70;;;;;;;19.64;44.95;95152.53;6285131;22;20171;-83
2023/05/15 15:40:53;;;;;;;3.05;2.78;;;;;;;19.05;41.78;95151.00;6285552;22;20175;-83
2023/05/15 15:43:25;;;;;;;3.28;2.53;;;;;;;19.29;41.25;95152.91;6284204;22;20230;-82
2023/05/15 15:45:56;;;;;;;7.15;3.17;;;;;;;19.24;42.43;95158.00;6309984;22;20578;-82
2023/05/15 15:48:21;;;;;;;4.00;2.90;;;;;;;19.15;41.79;95164.53;6310440;22;20132;-83
2023/05/15 15:50:46;;;;;;;2.25;2.05;;;;;;;18.81;41.25;95165.66;6309725;22;20187;-83
2023/05/15 15:53:12;;;;;;;2.63;2.42;;;;;;;18.70;41.10;95161.88;6310433;22;20183;-81
2023/05/15 15:55:37;;;;;;;4.80;2.88;;;;;;;18.78;41.19;95168.72;6310236;22;20721;-82
2023/05/15 15:58:05;;;;;;;6.80;2.63;;;;;;;18.53;42.23;95166.72;6282959;22;20168;-83
2023/05/15 16:00:30;;;;;;;4.18;3.60;;;;;;;17.58;49.41;95175.84;6284064;22;20180;-85
2023/05/15 16:02:55;;;;;;;4.55;4.05;;;;;;;16.95;52.58;95181.31;6311416;22;20207;-83
2023/05/15 16:05:21;;;;;;;5.68;3.95;;;;;;;16.95;53.87;95186.53;6306448;22;20144;-83
2023/05/15 16:07:48;;;;;;;3.92;3.63;;;;;;;17.22;54.15;95176.97;6279346;22;20159;-83
2023/05/15 16:10:25;;;;;;;4.72;4.22;;;;;;;17.09;54.03;95179.56;6280053;22;20245;-83
2023/05/15 16:12:52;;;;;;;4.57;4.18;;;;;;;17.23;53.17;95175.97;6280294;22;20893;-87
2023/05/15 16:15:32;;;;;;;4.55;4.15;;;;;;;17.22;54.00;95171.72;6278070;22;20226;-87
2023/05/15 16:18:00;;;;;;;4.72;4.32;;;;;;;17.27;53.63;95169.31;6281001;22;20152;-86
2023/05/15 16:21:05;;;;;;;4.07;3.78;;;;;;;17.48;52.94;95172.78;6280125;22;20180;-87
2023/05/15 16:23:35;;;;;;;3.85;3.55;;;;;;;17.52;52.54;95176.66;6279915;22;20201;-88
2023/05/15 16:26:11;;;;;;;4.65;3.70;;;;;;;17.26;52.83;95170.31;6279108;22;20179;-86
2023/05/15 16:28:43;;;;;;;6.57;4.15;;;;;;;17.23;53.10;95177.78;6281582;22;20219;-79